sensor_id;sensor_type;location;lat;lon;timestamp;P1;durP1;ratioP1;P2;durP2;ratioP2
9974;SDS011;5028;50.974;4.968;2022-09-17T00:01:40;7.23;;;2.17;;
9974;SDS011;5028;50.974;4.968;2022-09-17T00:04:08;9.20;;;2.10;;
9974;SDS011;5028;50.974;4.968;2022-09-17T00:06:43;6.73;;;2.03;;
9974;SDS011;5028;50.974;4.968;2022-09-17T00:09:11;5.70;;;1.83;;
9974;SDS011;5028;50.974;4.968;2022-09-17T00:11:46;7.97;;;2.33;;
9974;SDS011;5028;50.974;4.968;2022-09-17T00:14:15;7.57;;;2.07;;
9974;SDS011;5028;50.974;4.968;2022-09-17T00:16:52;7.50;;;1.80;;
9974;SDS011;5028;50.974;4.968;2022-09-17T00:19:34;6.73;;;1.97;;
9974;SDS011;5028;50.974;4.968;2022-09-17T00:22:08;7.53;;;2.50;;
9974;SDS011;5028;50.974;4.968;2022-09-17T00:24:36;10.47;;;2.30;;
9974;SDS011;5028;50.974;4.968;2022-09-17T00:27:11;6.90;;;1.90;;
9974;SDS011;5028;50.974;4.968;2022-09-17T00:29:39;6.93;;;2.07;;
9974;SDS011;5028;50.974;4.968;2022-09-17T00:32:16;6.67;;;2.13;;
9974;SDS011;5028;50.974;4.968;2022-09-17T00:34:46;6.10;;;2.00;;
9974;SDS011;5028;50.974;4.968;2022-09-17T00:37:23;8.70;;;2.50;;
9974;SDS011;5028;50.974;4.968;2022-09-17T00:39:52;6.80;;;2.23;;
9974;SDS011;5028;50.974;4.968;2022-09-17T00:42:26;5.40;;;2.03;;
9974;SDS011;5028;50.974;4.968;2022-09-17T00:44:55;6.37;;;1.73;;
9974;SDS011;5028;50.974;4.968;2022-09-17T00:47:47;6.50;;;1.97;;
9974;SDS011;5028;50.974;4.968;2022-09-17T00:50:20;7.47;;;2.00;;
9974;SDS011;5028;50.974;4.968;2022-09-17T00:53:00;8.70;;;2.30;;
9974;SDS011;5028;50.974;4.968;2022-09-17T00:55:32;8.57;;;1.93;;
9974;SDS011;5028;50.974;4.968;2022-09-17T00:58:10;7.10;;;1.93;;
9974;SDS011;5028;50.974;4.968;2022-09-17T01:00:41;8.43;;;1.67;;
9974;SDS011;5028;50.974;4.968;2022-09-17T01:03:18;7.43;;;1.70;;
9974;SDS011;5028;50.974;4.968;2022-09-17T01:05:48;8.67;;;2.23;;
9974;SDS011;5028;50.974;4.968;2022-09-17T01:08:31;8.47;;;2.10;;
9974;SDS011;5028;50.974;4.968;2022-09-17T01:11:14;6.77;;;1.73;;
9974;SDS011;5028;50.974;4.968;2022-09-17T01:14:05;4.57;;;1.77;;
9974;SDS011;5028;50.974;4.968;2022-09-17T01:16:47;7.93;;;2.00;;
9974;SDS011;5028;50.974;4.968;2022-09-17T01:19:41;6.50;;;1.60;;
9974;SDS011;5028;50.974;4.968;2022-09-17T01:22:42;3.20;;;1.40;;
9974;SDS011;5028;50.974;4.968;2022-09-17T01:25:21;5.00;;;1.57;;
9974;SDS011;5028;50.974;4.968;2022-09-17T01:28:08;7.63;;;1.87;;
9974;SDS011;5028;50.974;4.968;2022-09-17T01:34:03;5.33;;;1.83;;
9974;SDS011;5028;50.974;4.968;2022-09-17T01:36:49;7.73;;;2.03;;
9974;SDS011;5028;50.974;4.968;2022-09-17T01:39:32;6.90;;;2.10;;
9974;SDS011;5028;50.974;4.968;2022-09-17T01:42:14;7.43;;;2.10;;
9974;SDS011;5028;50.974;4.968;2022-09-17T01:44:49;7.57;;;1.90;;
9974;SDS011;5028;50.974;4.968;2022-09-17T01:47:29;8.77;;;2.00;;
9974;SDS011;5028;50.974;4.968;2022-09-17T01:50:03;6.80;;;2.00;;
9974;SDS011;5028;50.974;4.968;2022-09-17T01:52:42;6.70;;;1.60;;
9974;SDS011;5028;50.974;4.968;2022-09-17T01:55:15;6.60;;;1.90;;
9974;SDS011;5028;50.974;4.968;2022-09-17T01:57:52;5.80;;;2.07;;
9974;SDS011;5028;50.974;4.968;2022-09-17T02:00:24;11.60;;;2.10;;
9974;SDS011;5028;50.974;4.968;2022-09-17T02:03:03;6.47;;;2.13;;
9974;SDS011;5028;50.974;4.968;2022-09-17T02:05:36;5.97;;;1.90;;
9974;SDS011;5028;50.974;4.968;2022-09-17T02:08:14;4.77;;;1.70;;
9974;SDS011;5028;50.974;4.968;2022-09-17T02:10:46;4.60;;;1.60;;
9974;SDS011;5028;50.974;4.968;2022-09-17T02:13:25;7.80;;;1.93;;
9974;SDS011;5028;50.974;4.968;2022-09-17T02:16:00;10.63;;;1.83;;
9974;SDS011;5028;50.974;4.968;2022-09-17T02:18:41;5.43;;;1.93;;
9974;SDS011;5028;50.974;4.968;2022-09-17T02:21:25;6.97;;;2.10;;
9974;SDS011;5028;50.974;4.968;2022-09-17T02:24:08;8.10;;;1.97;;
9974;SDS011;5028;50.974;4.968;2022-09-17T02:26:44;6.10;;;1.87;;
9974;SDS011;5028;50.974;4.968;2022-09-17T02:29:25;7.57;;;1.80;;
9974;SDS011;5028;50.974;4.968;2022-09-17T02:31:59;6.57;;;1.47;;
9974;SDS011;5028;50.974;4.968;2022-09-17T02:34:36;8.30;;;2.17;;
9974;SDS011;5028;50.974;4.968;2022-09-17T02:37:05;6.80;;;1.57;;
9974;SDS011;5028;50.974;4.968;2022-09-17T02:39:45;4.30;;;1.60;;
9974;SDS011;5028;50.974;4.968;2022-09-17T02:42:15;10.60;;;2.27;;
9974;SDS011;5028;50.974;4.968;2022-09-17T02:44:56;5.80;;;1.70;;
9974;SDS011;5028;50.974;4.968;2022-09-17T02:47:38;7.60;;;2.00;;
9974;SDS011;5028;50.974;4.968;2022-09-17T02:50:37;9.80;;;2.07;;
9974;SDS011;5028;50.974;4.968;2022-09-17T02:53:18;6.57;;;2.00;;
9974;SDS011;5028;50.974;4.968;2022-09-17T02:56:10;12.03;;;1.93;;
9974;SDS011;5028;50.974;4.968;2022-09-17T02:58:46;6.27;;;1.70;;
9974;SDS011;5028;50.974;4.968;2022-09-17T03:01:27;6.30;;;2.00;;
9974;SDS011;5028;50.974;4.968;2022-09-17T03:04:00;4.40;;;1.73;;
9974;SDS011;5028;50.974;4.968;2022-09-17T03:06:40;9.70;;;1.97;;
9974;SDS011;5028;50.974;4.968;2022-09-17T03:09:10;7.43;;;1.80;;
9974;SDS011;5028;50.974;4.968;2022-09-17T03:11:45;7.43;;;2.17;;
9974;SDS011;5028;50.974;4.968;2022-09-17T03:14:13;7.10;;;2.50;;
9974;SDS011;5028;50.974;4.968;2022-09-17T03:16:54;9.60;;;2.10;;
9974;SDS011;5028;50.974;4.968;2022-09-17T03:19:23;6.13;;;2.10;;
9974;SDS011;5028;50.974;4.968;2022-09-17T03:21:59;9.27;;;2.20;;
9974;SDS011;5028;50.974;4.968;2022-09-17T03:24:27;7.77;;;1.90;;
9974;SDS011;5028;50.974;4.968;2022-09-17T03:27:03;9.20;;;2.27;;
9974;SDS011;5028;50.974;4.968;2022-09-17T03:29:31;7.07;;;1.90;;
9974;SDS011;5028;50.974;4.968;2022-09-17T03:32:06;8.93;;;2.17;;
9974;SDS011;5028;50.974;4.968;2022-09-17T03:34:34;7.37;;;2.00;;
9974;SDS011;5028;50.974;4.968;2022-09-17T03:37:13;5.83;;;1.53;;
9974;SDS011;5028;50.974;4.968;2022-09-17T03:39:41;8.30;;;1.90;;
9974;SDS011;5028;50.974;4.968;2022-09-17T03:42:16;7.63;;;1.80;;
9974;SDS011;5028;50.974;4.968;2022-09-17T03:44:44;7.87;;;2.10;;
9974;SDS011;5028;50.974;4.968;2022-09-17T03:47:19;6.20;;;1.80;;
9974;SDS011;5028;50.974;4.968;2022-09-17T03:49:47;11.80;;;2.20;;
9974;SDS011;5028;50.974;4.968;2022-09-17T03:52:23;7.77;;;2.03;;
9974;SDS011;5028;50.974;4.968;2022-09-17T03:54:51;8.90;;;2.47;;
9974;SDS011;5028;50.974;4.968;2022-09-17T03:57:26;8.87;;;2.00;;
9974;SDS011;5028;50.974;4.968;2022-09-17T03:59:54;8.63;;;2.20;;
9974;SDS011;5028;50.974;4.968;2022-09-17T04:02:29;12.20;;;2.77;;
9974;SDS011;5028;50.974;4.968;2022-09-17T04:04:58;7.80;;;1.97;;
9974;SDS011;5028;50.974;4.968;2022-09-17T04:07:35;7.27;;;1.63;;
9974;SDS011;5028;50.974;4.968;2022-09-17T04:10:03;9.40;;;2.20;;
9974;SDS011;5028;50.974;4.968;2022-09-17T04:12:39;8.97;;;2.27;;
9974;SDS011;5028;50.974;4.968;2022-09-17T04:15:07;8.20;;;1.83;;
9974;SDS011;5028;50.974;4.968;2022-09-17T04:17:42;7.63;;;2.40;;
9974;SDS011;5028;50.974;4.968;2022-09-17T04:20:23;12.67;;;2.30;;
9974;SDS011;5028;50.974;4.968;2022-09-17T04:22:53;11.60;;;2.30;;
9974;SDS011;5028;50.974;4.968;2022-09-17T04:25:28;8.63;;;2.00;;
9974;SDS011;5028;50.974;4.968;2022-09-17T04:27:56;12.83;;;2.30;;
9974;SDS011;5028;50.974;4.968;2022-09-17T04:30:31;9.90;;;2.23;;
9974;SDS011;5028;50.974;4.968;2022-09-17T04:32:59;8.53;;;1.90;;
9974;SDS011;5028;50.974;4.968;2022-09-17T04:35:34;10.60;;;2.33;;
9974;SDS011;5028;50.974;4.968;2022-09-17T04:38:03;7.40;;;1.93;;
9974;SDS011;5028;50.974;4.968;2022-09-17T04:40:38;8.53;;;2.20;;
9974;SDS011;5028;50.974;4.968;2022-09-17T04:43:07;11.03;;;2.17;;
9974;SDS011;5028;50.974;4.968;2022-09-17T04:45:44;9.57;;;2.00;;
9974;SDS011;5028;50.974;4.968;2022-09-17T04:48:12;7.97;;;2.13;;
9974;SDS011;5028;50.974;4.968;2022-09-17T04:50:47;10.30;;;2.03;;
9974;SDS011;5028;50.974;4.968;2022-09-17T04:53:16;8.60;;;1.93;;
9974;SDS011;5028;50.974;4.968;2022-09-17T04:55:52;9.77;;;1.90;;
9974;SDS011;5028;50.974;4.968;2022-09-17T04:58:20;11.73;;;2.53;;
9974;SDS011;5028;50.974;4.968;2022-09-17T05:00:55;6.10;;;1.90;;
9974;SDS011;5028;50.974;4.968;2022-09-17T05:03:23;6.73;;;2.07;;
9974;SDS011;5028;50.974;4.968;2022-09-17T05:05:58;8.30;;;2.50;;
9974;SDS011;5028;50.974;4.968;2022-09-17T05:08:27;13.73;;;2.73;;
9974;SDS011;5028;50.974;4.968;2022-09-17T05:11:05;9.63;;;2.57;;
9974;SDS011;5028;50.974;4.968;2022-09-17T05:13:33;11.13;;;2.90;;
9974;SDS011;5028;50.974;4.968;2022-09-17T05:16:14;12.80;;;2.50;;
9974;SDS011;5028;50.974;4.968;2022-09-17T05:18:56;7.50;;;2.10;;
9974;SDS011;5028;50.974;4.968;2022-09-17T05:21:31;8.63;;;2.30;;
9974;SDS011;5028;50.974;4.968;2022-09-17T05:24:00;9.50;;;2.50;;
9974;SDS011;5028;50.974;4.968;2022-09-17T05:26:36;12.00;;;2.60;;
9974;SDS011;5028;50.974;4.968;2022-09-17T05:29:04;10.50;;;2.70;;
9974;SDS011;5028;50.974;4.968;2022-09-17T05:31:39;12.40;;;2.57;;
9974;SDS011;5028;50.974;4.968;2022-09-17T05:34:07;12.40;;;2.57;;
9974;SDS011;5028;50.974;4.968;2022-09-17T05:36:42;10.93;;;2.70;;
9974;SDS011;5028;50.974;4.968;2022-09-17T05:39:11;12.53;;;2.73;;
9974;SDS011;5028;50.974;4.968;2022-09-17T05:41:46;11.97;;;2.47;;
9974;SDS011;5028;50.974;4.968;2022-09-17T05:44:14;11.80;;;2.90;;
9974;SDS011;5028;50.974;4.968;2022-09-17T05:46:51;11.07;;;2.60;;
9974;SDS011;5028;50.974;4.968;2022-09-17T05:49:19;8.43;;;2.00;;
9974;SDS011;5028;50.974;4.968;2022-09-17T05:51:54;9.63;;;2.63;;
9974;SDS011;5028;50.974;4.968;2022-09-17T05:54:23;8.80;;;2.17;;
9974;SDS011;5028;50.974;4.968;2022-09-17T05:56:58;8.13;;;1.97;;
9974;SDS011;5028;50.974;4.968;2022-09-17T05:59:26;8.63;;;2.23;;
9974;SDS011;5028;50.974;4.968;2022-09-17T06:02:01;11.80;;;2.47;;
9974;SDS011;5028;50.974;4.968;2022-09-17T06:04:29;11.77;;;2.60;;
9974;SDS011;5028;50.974;4.968;2022-09-17T06:07:04;10.43;;;2.43;;
9974;SDS011;5028;50.974;4.968;2022-09-17T06:09:34;9.40;;;2.60;;
9974;SDS011;5028;50.974;4.968;2022-09-17T06:12:10;12.33;;;2.30;;
9974;SDS011;5028;50.974;4.968;2022-09-17T06:14:38;6.20;;;2.20;;
9974;SDS011;5028;50.974;4.968;2022-09-17T06:17:20;5.57;;;1.80;;
9974;SDS011;5028;50.974;4.968;2022-09-17T06:19:48;7.50;;;1.90;;
9974;SDS011;5028;50.974;4.968;2022-09-17T06:22:23;7.50;;;2.07;;
9974;SDS011;5028;50.974;4.968;2022-09-17T06:24:52;7.60;;;1.60;;
9974;SDS011;5028;50.974;4.968;2022-09-17T06:27:29;9.70;;;1.90;;
9974;SDS011;5028;50.974;4.968;2022-09-17T06:29:57;10.67;;;2.17;;
9974;SDS011;5028;50.974;4.968;2022-09-17T06:32:32;5.83;;;1.83;;
9974;SDS011;5028;50.974;4.968;2022-09-17T06:35:00;7.43;;;2.10;;
9974;SDS011;5028;50.974;4.968;2022-09-17T06:37:35;8.47;;;2.17;;
9974;SDS011;5028;50.974;4.968;2022-09-17T06:40:07;5.80;;;1.73;;
9974;SDS011;5028;50.974;4.968;2022-09-17T06:42:43;5.37;;;1.60;;
9974;SDS011;5028;50.974;4.968;2022-09-17T06:45:11;8.00;;;2.23;;
9974;SDS011;5028;50.974;4.968;2022-09-17T06:47:46;6.27;;;2.00;;
9974;SDS011;5028;50.974;4.968;2022-09-17T06:50:14;9.57;;;2.10;;
9974;SDS011;5028;50.974;4.968;2022-09-17T06:52:49;8.17;;;1.87;;
9974;SDS011;5028;50.974;4.968;2022-09-17T06:55:19;4.77;;;2.10;;
9974;SDS011;5028;50.974;4.968;2022-09-17T06:57:57;6.20;;;1.90;;
9974;SDS011;5028;50.974;4.968;2022-09-17T07:00:26;7.47;;;2.00;;
9974;SDS011;5028;50.974;4.968;2022-09-17T07:03:02;7.53;;;1.93;;
9974;SDS011;5028;50.974;4.968;2022-09-17T07:05:30;12.87;;;2.13;;
9974;SDS011;5028;50.974;4.968;2022-09-17T07:08:05;8.90;;;2.37;;
9974;SDS011;5028;50.974;4.968;2022-09-17T07:10:34;6.73;;;1.90;;
9974;SDS011;5028;50.974;4.968;2022-09-17T07:13:09;6.40;;;1.70;;
9974;SDS011;5028;50.974;4.968;2022-09-17T07:15:37;8.60;;;1.97;;
9974;SDS011;5028;50.974;4.968;2022-09-17T07:18:12;7.80;;;2.13;;
9974;SDS011;5028;50.974;4.968;2022-09-17T07:20:51;6.73;;;1.87;;
9974;SDS011;5028;50.974;4.968;2022-09-17T07:23:27;9.63;;;2.20;;
9974;SDS011;5028;50.974;4.968;2022-09-17T07:25:59;6.77;;;1.90;;
9974;SDS011;5028;50.974;4.968;2022-09-17T07:28:37;6.17;;;1.83;;
9974;SDS011;5028;50.974;4.968;2022-09-17T07:31:09;6.47;;;1.60;;
9974;SDS011;5028;50.974;4.968;2022-09-17T07:33:48;6.97;;;1.73;;
9974;SDS011;5028;50.974;4.968;2022-09-17T07:36:16;6.70;;;1.77;;
9974;SDS011;5028;50.974;4.968;2022-09-17T07:38:53;7.30;;;1.63;;
9974;SDS011;5028;50.974;4.968;2022-09-17T07:41:22;9.60;;;1.77;;
9974;SDS011;5028;50.974;4.968;2022-09-17T07:43:57;8.40;;;2.10;;
9974;SDS011;5028;50.974;4.968;2022-09-17T07:46:27;6.30;;;2.17;;
9974;SDS011;5028;50.974;4.968;2022-09-17T07:49:02;8.17;;;2.00;;
9974;SDS011;5028;50.974;4.968;2022-09-17T07:51:30;7.47;;;1.87;;
9974;SDS011;5028;50.974;4.968;2022-09-17T07:54:06;7.07;;;1.73;;
9974;SDS011;5028;50.974;4.968;2022-09-17T07:56:35;2.50;;;1.47;;
9974;SDS011;5028;50.974;4.968;2022-09-17T07:59:10;5.77;;;1.63;;
9974;SDS011;5028;50.974;4.968;2022-09-17T08:01:38;6.93;;;1.70;;
9974;SDS011;5028;50.974;4.968;2022-09-17T08:04:14;8.70;;;2.00;;
9974;SDS011;5028;50.974;4.968;2022-09-17T08:06:42;5.63;;;1.40;;
9974;SDS011;5028;50.974;4.968;2022-09-17T08:09:20;5.43;;;1.50;;
9974;SDS011;5028;50.974;4.968;2022-09-17T08:11:50;5.97;;;1.50;;
9974;SDS011;5028;50.974;4.968;2022-09-17T08:14:24;6.23;;;1.60;;
9974;SDS011;5028;50.974;4.968;2022-09-17T08:16:55;8.33;;;2.00;;
9974;SDS011;5028;50.974;4.968;2022-09-17T08:19:37;6.67;;;1.97;;
9974;SDS011;5028;50.974;4.968;2022-09-17T08:22:12;9.17;;;2.47;;
9974;SDS011;5028;50.974;4.968;2022-09-17T08:24:42;6.57;;;1.77;;
9974;SDS011;5028;50.974;4.968;2022-09-17T08:27:18;7.57;;;2.10;;
9974;SDS011;5028;50.974;4.968;2022-09-17T08:29:46;7.00;;;1.53;;
9974;SDS011;5028;50.974;4.968;2022-09-17T08:32:21;4.83;;;1.40;;
9974;SDS011;5028;50.974;4.968;2022-09-17T08:34:49;6.73;;;1.70;;
9974;SDS011;5028;50.974;4.968;2022-09-17T08:37:25;5.67;;;1.80;;
9974;SDS011;5028;50.974;4.968;2022-09-17T08:39:55;5.90;;;1.80;;
9974;SDS011;5028;50.974;4.968;2022-09-17T08:42:34;7.03;;;1.80;;
9974;SDS011;5028;50.974;4.968;2022-09-17T08:45:07;6.30;;;1.77;;
9974;SDS011;5028;50.974;4.968;2022-09-17T08:47:48;6.60;;;2.00;;
9974;SDS011;5028;50.974;4.968;2022-09-17T08:50:18;5.80;;;1.90;;
9974;SDS011;5028;50.974;4.968;2022-09-17T08:53:03;4.27;;;1.57;;
9974;SDS011;5028;50.974;4.968;2022-09-17T08:55:53;5.03;;;1.77;;
9974;SDS011;5028;50.974;4.968;2022-09-17T09:01:48;6.63;;;1.83;;
9974;SDS011;5028;50.974;4.968;2022-09-17T09:04:55;7.03;;;1.90;;
9974;SDS011;5028;50.974;4.968;2022-09-17T09:07:41;7.47;;;1.90;;
9974;SDS011;5028;50.974;4.968;2022-09-17T09:10:19;5.83;;;1.60;;
9974;SDS011;5028;50.974;4.968;2022-09-17T09:12:50;5.93;;;1.77;;
9974;SDS011;5028;50.974;4.968;2022-09-17T09:15:30;5.17;;;1.50;;
9974;SDS011;5028;50.974;4.968;2022-09-17T09:18:11;4.77;;;1.80;;
9974;SDS011;5028;50.974;4.968;2022-09-17T09:21:00;6.23;;;1.60;;
9974;SDS011;5028;50.974;4.968;2022-09-17T09:23:50;4.57;;;1.53;;
9974;SDS011;5028;50.974;4.968;2022-09-17T09:26:33;6.10;;;1.60;;
9974;SDS011;5028;50.974;4.968;2022-09-17T09:29:12;3.73;;;1.60;;
9974;SDS011;5028;50.974;4.968;2022-09-17T09:32:00;4.27;;;1.37;;
9974;SDS011;5028;50.974;4.968;2022-09-17T09:34:42;5.10;;;1.57;;
9974;SDS011;5028;50.974;4.968;2022-09-17T09:37:19;7.33;;;1.57;;
9974;SDS011;5028;50.974;4.968;2022-09-17T09:39:52;5.13;;;1.60;;
9974;SDS011;5028;50.974;4.968;2022-09-17T09:42:29;4.60;;;1.57;;
9974;SDS011;5028;50.974;4.968;2022-09-17T09:44:59;6.13;;;1.43;;
9974;SDS011;5028;50.974;4.968;2022-09-17T09:47:44;6.47;;;1.80;;
9974;SDS011;5028;50.974;4.968;2022-09-17T09:50:27;5.73;;;1.53;;
9974;SDS011;5028;50.974;4.968;2022-09-17T09:53:33;4.53;;;1.70;;
9974;SDS011;5028;50.974;4.968;2022-09-17T09:56:20;8.20;;;2.20;;
9974;SDS011;5028;50.974;4.968;2022-09-17T09:59:05;7.00;;;2.00;;
9974;SDS011;5028;50.974;4.968;2022-09-17T10:01:37;8.80;;;1.93;;
9974;SDS011;5028;50.974;4.968;2022-09-17T10:04:17;7.10;;;1.77;;
9974;SDS011;5028;50.974;4.968;2022-09-17T10:06:47;4.77;;;1.70;;
9974;SDS011;5028;50.974;4.968;2022-09-17T10:09:24;6.00;;;1.70;;
9974;SDS011;5028;50.974;4.968;2022-09-17T10:11:58;5.23;;;1.60;;
9974;SDS011;5028;50.974;4.968;2022-09-17T10:14:39;3.80;;;1.27;;
9974;SDS011;5028;50.974;4.968;2022-09-17T10:17:19;3.73;;;1.47;;
9974;SDS011;5028;50.974;4.968;2022-09-17T10:20:14;5.63;;;1.50;;
9974;SDS011;5028;50.974;4.968;2022-09-17T10:22:48;5.70;;;1.37;;
9974;SDS011;5028;50.974;4.968;2022-09-17T10:25:26;3.10;;;1.30;;
9974;SDS011;5028;50.974;4.968;2022-09-17T10:27:56;3.90;;;1.43;;
9974;SDS011;5028;50.974;4.968;2022-09-17T10:30:33;5.50;;;1.47;;
9974;SDS011;5028;50.974;4.968;2022-09-17T10:33:14;2.77;;;1.30;;
9974;SDS011;5028;50.974;4.968;2022-09-17T10:35:55;2.90;;;1.27;;
9974;SDS011;5028;50.974;4.968;2022-09-17T10:38:26;6.70;;;1.87;;
9974;SDS011;5028;50.974;4.968;2022-09-17T10:41:12;4.03;;;1.40;;
9974;SDS011;5028;50.974;4.968;2022-09-17T10:43:47;3.07;;;1.20;;
9974;SDS011;5028;50.974;4.968;2022-09-17T10:46:24;3.57;;;0.93;;
9974;SDS011;5028;50.974;4.968;2022-09-17T10:48:56;1.77;;;0.90;;
9974;SDS011;5028;50.974;4.968;2022-09-17T10:51:41;1.97;;;0.80;;
9974;SDS011;5028;50.974;4.968;2022-09-17T10:54:24;2.23;;;0.90;;
9974;SDS011;5028;50.974;4.968;2022-09-17T10:57:18;4.27;;;1.23;;
9974;SDS011;5028;50.974;4.968;2022-09-17T11:00:03;4.80;;;1.77;;
9974;SDS011;5028;50.974;4.968;2022-09-17T11:02:51;4.03;;;1.20;;
9974;SDS011;5028;50.974;4.968;2022-09-17T11:08:56;3.37;;;1.30;;
9974;SDS011;5028;50.974;4.968;2022-09-17T11:11:42;5.17;;;1.40;;
9974;SDS011;5028;50.974;4.968;2022-09-17T11:14:19;2.97;;;1.00;;
9974;SDS011;5028;50.974;4.968;2022-09-17T11:17:27;2.50;;;1.00;;
9974;SDS011;5028;50.974;4.968;2022-09-17T11:20:28;4.53;;;1.10;;
9974;SDS011;5028;50.974;4.968;2022-09-17T11:23:19;3.93;;;1.40;;
9974;SDS011;5028;50.974;4.968;2022-09-17T11:26:02;2.70;;;1.20;;
9974;SDS011;5028;50.974;4.968;2022-09-17T11:28:50;3.27;;;0.83;;
9974;SDS011;5028;50.974;4.968;2022-09-17T11:31:28;3.20;;;1.00;;
9974;SDS011;5028;50.974;4.968;2022-09-17T11:34:24;4.80;;;1.20;;
9974;SDS011;5028;50.974;4.968;2022-09-17T11:36:59;2.50;;;1.00;;
9974;SDS011;5028;50.974;4.968;2022-09-17T11:39:40;3.07;;;0.80;;
9974;SDS011;5028;50.974;4.968;2022-09-17T11:42:15;2.20;;;0.83;;
9974;SDS011;5028;50.974;4.968;2022-09-17T11:44:53;3.37;;;1.37;;
9974;SDS011;5028;50.974;4.968;2022-09-17T11:47:24;2.97;;;1.20;;
9974;SDS011;5028;50.974;4.968;2022-09-17T11:50:06;1.90;;;0.90;;
9974;SDS011;5028;50.974;4.968;2022-09-17T11:52:45;2.63;;;0.90;;
9974;SDS011;5028;50.974;4.968;2022-09-17T11:55:30;1.80;;;0.60;;
9974;SDS011;5028;50.974;4.968;2022-09-17T11:58:06;1.30;;;0.70;;
9974;SDS011;5028;50.974;4.968;2022-09-17T12:00:48;1.67;;;0.67;;
9974;SDS011;5028;50.974;4.968;2022-09-17T12:03:28;5.13;;;0.80;;
9974;SDS011;5028;50.974;4.968;2022-09-17T12:05:59;5.27;;;1.40;;
9974;SDS011;5028;50.974;4.968;2022-09-17T12:08:39;4.20;;;0.80;;
9974;SDS011;5028;50.974;4.968;2022-09-17T12:11:14;2.97;;;0.90;;
9974;SDS011;5028;50.974;4.968;2022-09-17T12:13:54;2.67;;;0.97;;
9974;SDS011;5028;50.974;4.968;2022-09-17T12:16:30;3.20;;;1.10;;
9974;SDS011;5028;50.974;4.968;2022-09-17T12:19:18;2.87;;;1.17;;
9974;SDS011;5028;50.974;4.968;2022-09-17T12:21:51;2.60;;;1.10;;
9974;SDS011;5028;50.974;4.968;2022-09-17T12:24:29;5.17;;;1.40;;
9974;SDS011;5028;50.974;4.968;2022-09-17T12:27:09;1.97;;;0.83;;
9974;SDS011;5028;50.974;4.968;2022-09-17T12:32:51;2.97;;;0.90;;
9974;SDS011;5028;50.974;4.968;2022-09-17T12:35:46;3.23;;;1.10;;
9974;SDS011;5028;50.974;4.968;2022-09-17T12:41:51;5.30;;;1.30;;
9974;SDS011;5028;50.974;4.968;2022-09-17T12:44:37;5.13;;;1.20;;
9974;SDS011;5028;50.974;4.968;2022-09-17T12:47:46;6.43;;;1.30;;
9974;SDS011;5028;50.974;4.968;2022-09-17T12:50:51;3.03;;;0.90;;
9974;SDS011;5028;50.974;4.968;2022-09-17T12:53:28;2.10;;;0.93;;
9974;SDS011;5028;50.974;4.968;2022-09-17T12:56:14;2.83;;;1.07;;
9974;SDS011;5028;50.974;4.968;2022-09-17T12:59:01;3.80;;;1.13;;
9974;SDS011;5028;50.974;4.968;2022-09-17T13:01:38;17.60;;;2.40;;
9974;SDS011;5028;50.974;4.968;2022-09-17T13:07:38;4.57;;;1.27;;
9974;SDS011;5028;50.974;4.968;2022-09-17T13:10:39;5.07;;;1.50;;
9974;SDS011;5028;50.974;4.968;2022-09-17T13:13:29;7.07;;;1.90;;
9974;SDS011;5028;50.974;4.968;2022-09-17T13:16:06;6.17;;;1.40;;
9974;SDS011;5028;50.974;4.968;2022-09-17T13:18:47;6.03;;;1.70;;
9974;SDS011;5028;50.974;4.968;2022-09-17T13:21:45;6.03;;;1.53;;
9974;SDS011;5028;50.974;4.968;2022-09-17T13:24:27;8.23;;;1.77;;
9974;SDS011;5028;50.974;4.968;2022-09-17T13:26:57;5.50;;;1.77;;
9974;SDS011;5028;50.974;4.968;2022-09-17T13:35:45;4.27;;;1.27;;
9974;SDS011;5028;50.974;4.968;2022-09-17T13:38:18;6.30;;;1.50;;
9974;SDS011;5028;50.974;4.968;2022-09-17T13:41:11;6.50;;;1.67;;
9974;SDS011;5028;50.974;4.968;2022-09-17T13:43:44;5.33;;;1.77;;
9974;SDS011;5028;50.974;4.968;2022-09-17T13:46:21;8.97;;;2.13;;
9974;SDS011;5028;50.974;4.968;2022-09-17T13:48:51;6.40;;;2.27;;
9974;SDS011;5028;50.974;4.968;2022-09-17T13:54:35;4.80;;;1.50;;
9974;SDS011;5028;50.974;4.968;2022-09-17T13:57:12;5.20;;;1.40;;
9974;SDS011;5028;50.974;4.968;2022-09-17T13:59:52;5.40;;;1.20;;
9974;SDS011;5028;50.974;4.968;2022-09-17T14:02:30;3.37;;;1.23;;
9974;SDS011;5028;50.974;4.968;2022-09-17T14:08:08;5.30;;;1.43;;
9974;SDS011;5028;50.974;4.968;2022-09-17T14:10:56;4.73;;;1.30;;
9974;SDS011;5028;50.974;4.968;2022-09-17T14:16:40;2.87;;;1.10;;
9974;SDS011;5028;50.974;4.968;2022-09-17T14:19:33;5.13;;;1.53;;
9974;SDS011;5028;50.974;4.968;2022-09-17T14:22:19;4.33;;;1.53;;
9974;SDS011;5028;50.974;4.968;2022-09-17T14:24:57;5.80;;;1.60;;
9974;SDS011;5028;50.974;4.968;2022-09-17T14:27:33;4.83;;;1.30;;
9974;SDS011;5028;50.974;4.968;2022-09-17T14:30:21;5.83;;;1.83;;
9974;SDS011;5028;50.974;4.968;2022-09-17T14:32:55;6.07;;;1.70;;
9974;SDS011;5028;50.974;4.968;2022-09-17T14:35:39;4.67;;;1.50;;
9974;SDS011;5028;50.974;4.968;2022-09-17T14:38:11;5.10;;;1.30;;
9974;SDS011;5028;50.974;4.968;2022-09-17T14:40:52;4.10;;;0.97;;
9974;SDS011;5028;50.974;4.968;2022-09-17T14:43:30;6.53;;;1.63;;
9974;SDS011;5028;50.974;4.968;2022-09-17T14:46:13;4.87;;;1.23;;
9974;SDS011;5028;50.974;4.968;2022-09-17T14:48:46;3.17;;;1.00;;
9974;SDS011;5028;50.974;4.968;2022-09-17T14:51:23;4.67;;;1.47;;
9974;SDS011;5028;50.974;4.968;2022-09-17T14:57:02;2.50;;;1.07;;
9974;SDS011;5028;50.974;4.968;2022-09-17T14:59:48;4.67;;;1.50;;
9974;SDS011;5028;50.974;4.968;2022-09-17T15:02:28;4.80;;;1.70;;
9974;SDS011;5028;50.974;4.968;2022-09-17T15:04:59;4.13;;;1.23;;
9974;SDS011;5028;50.974;4.968;2022-09-17T15:07:35;4.87;;;1.60;;
9974;SDS011;5028;50.974;4.968;2022-09-17T15:10:12;4.57;;;1.37;;
9974;SDS011;5028;50.974;4.968;2022-09-17T15:12:48;3.33;;;1.10;;
9974;SDS011;5028;50.974;4.968;2022-09-17T15:15:20;5.60;;;1.63;;
9974;SDS011;5028;50.974;4.968;2022-09-17T15:17:57;6.27;;;1.50;;
9974;SDS011;5028;50.974;4.968;2022-09-17T15:20:31;5.70;;;1.40;;
9974;SDS011;5028;50.974;4.968;2022-09-17T15:23:07;3.83;;;1.60;;
9974;SDS011;5028;50.974;4.968;2022-09-17T15:25:41;4.87;;;1.30;;
9974;SDS011;5028;50.974;4.968;2022-09-17T15:28:19;5.17;;;1.60;;
9974;SDS011;5028;50.974;4.968;2022-09-17T15:30:56;3.17;;;1.20;;
9974;SDS011;5028;50.974;4.968;2022-09-17T15:33:31;5.83;;;1.30;;
9974;SDS011;5028;50.974;4.968;2022-09-17T15:36:08;4.30;;;1.03;;
9974;SDS011;5028;50.974;4.968;2022-09-17T15:38:50;4.30;;;1.13;;
9974;SDS011;5028;50.974;4.968;2022-09-17T15:41:22;7.53;;;1.97;;
9974;SDS011;5028;50.974;4.968;2022-09-17T15:50:13;4.40;;;1.60;;
9974;SDS011;5028;50.974;4.968;2022-09-17T15:52:43;6.37;;;1.70;;
9974;SDS011;5028;50.974;4.968;2022-09-17T15:55:28;4.17;;;1.33;;
9974;SDS011;5028;50.974;4.968;2022-09-17T15:57:57;5.00;;;1.63;;
9974;SDS011;5028;50.974;4.968;2022-09-17T16:00:33;3.97;;;1.17;;
9974;SDS011;5028;50.974;4.968;2022-09-17T16:06:44;5.93;;;1.60;;
9974;SDS011;5028;50.974;4.968;2022-09-17T16:12:24;5.30;;;1.70;;
9974;SDS011;5028;50.974;4.968;2022-09-17T16:14:54;5.13;;;1.37;;
9974;SDS011;5028;50.974;4.968;2022-09-17T16:17:41;4.73;;;1.47;;
9974;SDS011;5028;50.974;4.968;2022-09-17T16:20:23;8.17;;;1.50;;
9974;SDS011;5028;50.974;4.968;2022-09-17T16:23:00;5.10;;;1.70;;
9974;SDS011;5028;50.974;4.968;2022-09-17T16:25:28;4.17;;;1.43;;
9974;SDS011;5028;50.974;4.968;2022-09-17T16:28:05;7.60;;;1.80;;
9974;SDS011;5028;50.974;4.968;2022-09-17T16:30:36;6.57;;;1.90;;
9974;SDS011;5028;50.974;4.968;2022-09-17T16:33:15;4.90;;;1.60;;
9974;SDS011;5028;50.974;4.968;2022-09-17T16:35:44;5.90;;;1.50;;
9974;SDS011;5028;50.974;4.968;2022-09-17T16:38:21;6.73;;;1.60;;
9974;SDS011;5028;50.974;4.968;2022-09-17T16:40:49;7.07;;;2.00;;
9974;SDS011;5028;50.974;4.968;2022-09-17T16:43:24;4.97;;;1.70;;
9974;SDS011;5028;50.974;4.968;2022-09-17T16:45:58;5.50;;;1.73;;
9974;SDS011;5028;50.974;4.968;2022-09-17T16:48:33;6.43;;;1.67;;
9974;SDS011;5028;50.974;4.968;2022-09-17T16:51:05;9.53;;;2.00;;
9974;SDS011;5028;50.974;4.968;2022-09-17T16:53:42;8.17;;;1.60;;
9974;SDS011;5028;50.974;4.968;2022-09-17T16:56:11;6.70;;;2.23;;
9974;SDS011;5028;50.974;4.968;2022-09-17T16:58:47;7.70;;;1.57;;
9974;SDS011;5028;50.974;4.968;2022-09-17T17:01:20;4.37;;;1.60;;
9974;SDS011;5028;50.974;4.968;2022-09-17T17:03:54;8.50;;;2.03;;
9974;SDS011;5028;50.974;4.968;2022-09-17T17:06:25;7.13;;;1.83;;